Nolan, West Virginia
Current Conditions -  °F | °C
As of 1:35 PM on Thursday 30 Oct 2014 (Local Time) from KSJS Reporting Station
Overcast Overcast  
Wind Chill: 48°   Ceiling: 3300
Heat Index: 48°   Visibility: 10mi
Dew Point: 35°   Wind: 0mph
Humidity: 60%   Direction: NA
Pressure: 30.13"   Gusts: NA
Location:  37.74°N, 82.33°W
Report Text: KSJS 301735Z AUTO 00000KT 10SM OVC033 09/02 A3013 RMK AO2 T00910018
Loading
Personal Weather Stations






























Interactive Weather Map
Tropical Storm Tracking
New forecast layout! Learn more

10-Day Weather Forecast

Advertisements
Track Severe Weather on mobile